createdAt,value
2018-09-04T00:00:12.043Z,56.90
2018-09-04T00:05:18.281Z,54.57
2018-09-04T00:10:23.543Z,52.33
2018-09-04T00:20:43.178Z,56.00
2018-09-04T00:25:54.176Z,54.30
2018-09-04T00:31:07.322Z,55.47
2018-09-04T00:41:48.729Z,57.53
2018-09-04T00:46:55.882Z,58.40
2018-09-04T00:52:14.353Z,57.00
2018-09-04T00:57:34.766Z,58.77
2018-09-04T01:07:54.093Z,55.37
2018-09-04T01:13:01.408Z,56.53
2018-09-04T01:23:45.911Z,56.70
2018-09-04T01:28:51.668Z,56.90
2018-09-04T01:33:57.756Z,55.17
2018-09-04T01:39:03.312Z,56.07
2018-09-04T01:44:10.148Z,59.53
2018-09-04T01:49:16.597Z,57.17
2018-09-04T01:54:21.865Z,56.67
2018-09-04T01:59:42.772Z,59.13
2018-09-04T02:04:49.003Z,60.27
2018-09-04T02:09:58.378Z,58.77
2018-09-04T02:20:44.019Z,54.20
2018-09-04T02:25:48.912Z,56.03
2018-09-04T02:30:54.499Z,60.33
2018-09-04T02:36:01.187Z,57.30
2018-09-04T02:41:09.982Z,57.97
2018-09-04T02:46:16.061Z,58.10
2018-09-04T02:56:56.951Z,59.83
2018-09-04T03:02:02.568Z,57.23
2018-09-04T03:07:09.079Z,61.63
2018-09-04T03:17:45.080Z,67.87
2018-09-04T03:22:50.244Z,71.70
2018-09-04T03:27:55.709Z,69.60
2018-09-04T03:33:00.618Z,70.70
2018-09-04T03:38:06.669Z,70.63
2018-09-04T03:43:13.792Z,71.87
2018-09-04T03:48:18.950Z,73.47
2018-09-04T03:53:24.677Z,70.87
2018-09-04T04:04:15.976Z,77.07
2018-09-04T04:09:22.643Z,78.13
2018-09-04T04:14:28.326Z,77.93
2018-09-04T04:19:32.970Z,78.23
2018-09-04T04:24:37.660Z,76.10
2018-09-04T04:29:42.365Z,78.63
2018-09-04T04:34:47.540Z,79.13
2018-09-04T04:39:52.114Z,82.40
2018-09-04T04:44:57.326Z,79.00
2018-09-04T04:50:03.146Z,80.43
2018-09-04T04:55:07.564Z,79.30
2018-09-04T05:00:13.059Z,75.13
2018-09-04T05:05:17.797Z,75.43
2018-09-04T05:10:22.861Z,72.57
2018-09-04T05:15:27.220Z,69.03
2018-09-04T05:20:32.335Z,73.83
2018-09-04T05:25:37.771Z,74.80
2018-09-04T05:30:42.231Z,75.07
2018-09-04T05:35:51.835Z,72.63
2018-09-04T05:40:56.325Z,69.30
2018-09-04T05:46:03.443Z,69.60
2018-09-04T05:51:07.952Z,74.43
2018-09-04T05:56:12.398Z,68.20
2018-09-04T06:01:16.878Z,69.40
2018-09-04T06:06:21.782Z,70.43
2018-09-04T06:11:26.245Z,64.47
2018-09-04T06:16:31.369Z,63.33
2018-09-04T06:21:35.718Z,62.50
2018-09-04T06:26:40.801Z,56.57
2018-09-04T06:31:45.232Z,59.07
2018-09-04T06:36:50.544Z,57.57
2018-09-04T06:41:55.037Z,55.10
2018-09-04T06:46:59.349Z,58.63
2018-09-04T06:52:03.733Z,54.23
2018-09-04T06:57:08.288Z,52.07
2018-09-04T07:02:13.637Z,56.00
2018-09-04T07:07:18.984Z,53.13
2018-09-04T07:12:23.445Z,56.13
2018-09-04T07:17:27.913Z,52.33
2018-09-04T07:22:32.366Z,53.13
2018-09-04T07:27:36.834Z,52.43
2018-09-04T07:32:42.009Z,53.23
2018-09-04T07:37:46.499Z,53.50
2018-09-04T07:42:51.089Z,49.87
2018-09-04T07:47:55.519Z,52.70
2018-09-04T07:53:00.095Z,50.80
2018-09-04T07:59:33.534Z,50.57
2018-09-04T08:04:38.013Z,51.30
2018-09-04T08:09:42.446Z,53.13
2018-09-04T08:14:47.147Z,53.93
2018-09-04T08:19:51.692Z,52.87
2018-09-04T08:24:56.559Z,53.33
2018-09-04T08:30:01.801Z,58.53
2018-09-04T08:35:06.443Z,57.80
2018-09-04T08:40:11.242Z,63.03
2018-09-04T08:45:16.436Z,59.67
2018-09-04T08:50:21.024Z,55.53
2018-09-04T08:55:25.655Z,58.17
2018-09-04T09:00:30.249Z,57.73
2018-09-04T09:05:35.223Z,61.50
2018-09-04T09:10:39.671Z,61.93
2018-09-04T09:15:44.221Z,59.73
2018-09-04T09:20:48.972Z,57.40
2018-09-04T09:25:53.575Z,51.53
2018-09-04T09:30:58.054Z,58.93
2018-09-04T09:36:02.702Z,54.93
2018-09-04T09:41:07.570Z,54.67
2018-09-04T09:46:12.453Z,53.37
2018-09-04T09:51:16.928Z,51.20
2018-09-04T09:56:21.319Z,54.40
2018-09-04T10:01:36.180Z,53.50
2018-09-04T10:06:40.929Z,52.60
2018-09-04T10:11:45.619Z,53.60
2018-09-04T10:16:50.501Z,52.33
2018-09-04T10:21:54.914Z,52.80
2018-09-04T10:27:00.053Z,53.30
2018-09-04T10:32:04.608Z,49.80
2018-09-04T10:37:09.169Z,53.20
2018-09-04T10:42:18.068Z,51.87
2018-09-04T10:47:23.366Z,49.37
2018-09-04T10:52:27.812Z,46.90
2018-09-04T10:57:32.179Z,42.83
2018-09-04T11:02:36.687Z,40.60
2018-09-04T11:07:41.223Z,37.43
2018-09-04T11:12:45.682Z,37.93
2018-09-04T11:17:51.229Z,36.13
2018-09-04T11:22:55.593Z,37.80
2018-09-04T11:28:00.062Z,33.10
2018-09-04T11:33:04.425Z,33.60
2018-09-04T11:38:09.382Z,29.93
2018-09-04T11:43:13.787Z,33.70
2018-09-04T11:48:18.375Z,37.97
2018-09-04T11:53:22.978Z,28.40
2018-09-04T11:58:28.739Z,28.40
2018-09-04T12:03:33.482Z,25.97
2018-09-04T12:08:37.927Z,28.23
2018-09-04T12:13:43.720Z,24.80
2018-09-04T12:18:48.317Z,24.27
2018-09-04T12:23:52.781Z,22.33
2018-09-04T12:28:57.208Z,14.17
2018-09-04T12:34:01.876Z,15.87
2018-09-04T12:39:07.326Z,17.03
2018-09-04T12:44:11.753Z,14.27
2018-09-04T12:49:16.322Z,14.53
2018-09-04T12:54:21.421Z,15.43
2018-09-04T12:59:25.987Z,16.97
2018-09-04T13:04:30.401Z,14.77
2018-09-04T13:09:34.851Z,14.50
2018-09-04T13:14:39.370Z,14.93
2018-09-04T13:19:43.927Z,16.10
2018-09-04T13:24:48.393Z,16.20
2018-09-04T13:29:52.974Z,16.00
2018-09-04T13:34:57.404Z,16.47
2018-09-04T13:40:03.068Z,14.70
2018-09-04T13:45:07.901Z,15.47
2018-09-04T13:50:18.200Z,15.90
2018-09-04T13:55:22.673Z,15.90
2018-09-04T14:00:27.469Z,17.40
2018-09-04T14:05:31.978Z,15.90
2018-09-04T14:10:36.821Z,17.53
2018-09-04T14:15:42.427Z,17.07
2018-09-04T14:20:47.113Z,16.53
2018-09-04T14:25:51.594Z,16.03
2018-09-04T14:30:55.959Z,15.00
2018-09-04T14:36:02.430Z,15.03
2018-09-04T14:41:07.291Z,15.03
2018-09-04T14:46:11.902Z,15.40
2018-09-04T14:51:16.310Z,14.13
2018-09-04T14:56:20.777Z,13.50
2018-09-04T15:01:25.897Z,13.63
2018-09-04T15:06:30.434Z,13.27
2018-09-04T15:11:35.465Z,12.70
2018-09-04T15:16:40.244Z,12.63
2018-09-04T15:21:44.699Z,11.23
2018-09-04T15:26:49.062Z,10.07
2018-09-04T15:31:53.656Z,10.90
2018-09-04T15:36:58.249Z,11.13
2018-09-04T15:42:02.723Z,13.10
2018-09-04T15:47:07.095Z,12.53
2018-09-04T15:52:11.458Z,12.23
2018-09-04T15:57:16.121Z,11.17
2018-09-04T16:02:20.672Z,11.00
2018-09-04T16:07:25.681Z,12.60
2018-09-04T16:12:30.026Z,13.20
2018-09-04T16:17:34.372Z,16.37
2018-09-04T16:22:39.327Z,15.83
2018-09-04T16:27:43.847Z,18.17
2018-09-04T16:32:48.231Z,14.03
2018-09-04T16:37:52.691Z,12.93
2018-09-04T16:42:57.017Z,14.23
2018-09-04T16:48:01.645Z,12.83
2018-09-04T16:53:06.297Z,14.87
2018-09-04T16:58:10.831Z,17.73
2018-09-04T17:03:15.321Z,18.00
2018-09-04T17:08:19.855Z,16.37
2018-09-04T17:13:24.802Z,20.67
2018-09-04T17:18:29.161Z,24.77
2018-09-04T17:23:33.492Z,25.90
2018-09-04T17:28:37.980Z,25.60
2018-09-04T17:33:42.425Z,26.30
2018-09-04T17:38:47.579Z,24.17
2018-09-04T17:43:51.929Z,23.30
2018-09-04T17:48:56.269Z,22.23
2018-09-04T17:54:00.630Z,26.73
2018-09-04T17:59:05.068Z,27.33
2018-09-04T18:04:09.364Z,28.30
2018-09-04T18:09:14.513Z,28.40
2018-09-04T18:14:19.002Z,30.00
2018-09-04T18:19:23.432Z,30.23
2018-09-04T18:24:28.079Z,33.67
2018-09-04T18:29:32.532Z,37.80
2018-09-04T18:34:37.003Z,36.03
2018-09-04T18:39:41.412Z,34.30
2018-09-04T18:44:45.755Z,39.33
2018-09-04T18:49:50.296Z,38.40
2018-09-04T18:54:55.021Z,39.60
2018-09-04T18:59:59.832Z,40.00
2018-09-04T19:05:04.482Z,40.63
2018-09-04T19:10:08.991Z,42.37
2018-09-04T19:15:13.577Z,47.73
2018-09-04T19:20:18.052Z,46.93
2018-09-04T19:25:22.467Z,47.50
2018-09-04T19:30:26.925Z,48.83
2018-09-04T19:35:31.699Z,49.70
2018-09-04T19:40:36.614Z,50.20
2018-09-04T19:45:42.146Z,49.80
2018-09-04T19:50:47.160Z,53.97
2018-09-04T19:55:58.584Z,52.67
2018-09-04T20:01:04.455Z,55.83
2018-09-04T20:06:09.137Z,50.80
2018-09-04T20:11:13.911Z,49.43
2018-09-04T20:16:18.656Z,49.67
2018-09-04T20:21:23.298Z,52.40
2018-09-04T20:26:28.026Z,53.40
2018-09-04T20:31:32.816Z,57.90
2018-09-04T20:36:37.462Z,53.13
2018-09-04T20:41:42.050Z,50.53
2018-09-04T20:46:47.412Z,49.43
2018-09-04T20:51:52.265Z,48.00
2018-09-04T20:57:34.947Z,41.90
2018-09-04T21:02:50.768Z,47.93
2018-09-04T21:08:06.865Z,43.83
2018-09-04T21:13:12.461Z,40.13
2018-09-04T21:18:17.725Z,41.63
2018-09-04T21:23:22.903Z,40.63
2018-09-04T21:28:27.630Z,43.50
2018-09-04T21:33:32.362Z,46.33
2018-09-04T21:38:37.677Z,43.50
2018-09-04T21:43:42.374Z,44.73
2018-09-04T21:48:46.976Z,49.30
2018-09-04T21:53:51.613Z,47.27
2018-09-04T21:58:56.594Z,44.10
2018-09-04T22:04:01.324Z,43.20
2018-09-04T22:09:07.033Z,40.90
2018-09-04T22:21:46.244Z,42.67
2018-09-04T22:26:51.023Z,40.00
2018-09-04T22:31:56.148Z,43.47
2018-09-04T22:37:02.580Z,44.80
2018-09-04T22:42:07.309Z,43.37
2018-09-04T22:47:12.069Z,41.13
2018-09-04T22:58:38.169Z,43.87
2018-09-04T23:03:43.446Z,44.97
2018-09-04T23:08:48.581Z,44.03
2018-09-04T23:13:53.631Z,45.37
2018-09-04T23:18:59.318Z,43.37
2018-09-04T23:24:04.548Z,42.93
2018-09-04T23:29:09.496Z,43.00
2018-09-04T23:34:15.307Z,42.67
2018-09-04T23:39:20.057Z,40.83
2018-09-04T23:44:25.106Z,40.80
2018-09-04T23:49:29.966Z,43.10
2018-09-04T23:54:35.399Z,43.03
2018-09-04T23:59:40.122Z,43.27
